createdAt,value
2023-05-23T00:00:52.081Z,99920.75
2023-05-23T00:05:56.520Z,99908.41
2023-05-23T00:11:00.835Z,99904.63
2023-05-23T00:16:04.617Z,99904.63
2023-05-23T00:21:07.783Z,99903.75
2023-05-23T00:26:11.964Z,99887.75
2023-05-23T00:31:19.226Z,99896.81
2023-05-23T00:36:24.252Z,99890.59
2023-05-23T00:41:30.525Z,99894.28
2023-05-23T00:46:33.908Z,99890.06
2023-05-23T00:51:37.198Z,99891.75
2023-05-23T00:56:41.372Z,99886.34
2023-05-23T01:01:47.753Z,99897.28
2023-05-23T01:06:50.565Z,99894.03
2023-05-23T01:12:00.352Z,99881.88
2023-05-23T01:17:06.251Z,99879.47
2023-05-23T01:22:13.144Z,99876.38
2023-05-23T01:27:21.949Z,99879.38
2023-05-23T01:32:26.559Z,99884.34
2023-05-23T01:37:29.771Z,99894.59
2023-05-23T01:42:32.708Z,99892.19
2023-05-23T01:47:37.039Z,99877.13
2023-05-23T01:52:40.476Z,99873.72
2023-05-23T01:57:43.285Z,99875.03
2023-05-23T02:02:47.701Z,99887.66
2023-05-23T02:07:52.839Z,99898.56
2023-05-23T02:12:55.786Z,99903.25
2023-05-23T02:18:00.020Z,99899.03
2023-05-23T02:23:02.941Z,99891.25
2023-05-23T02:28:05.849Z,99883.59
2023-05-23T02:33:10.874Z,99884.03
2023-05-23T02:38:13.861Z,99893.09
2023-05-23T02:43:18.002Z,99891.41
2023-05-23T02:48:22.371Z,99889.00
2023-05-23T02:53:27.124Z,99901.78
2023-05-23T02:58:31.854Z,99908.31
2023-05-23T03:03:36.511Z,99905.88
2023-05-23T03:08:39.524Z,99904.50
2023-05-23T03:13:42.412Z,99894.88
2023-05-23T03:18:46.688Z,99896.84
2023-05-23T03:23:50.245Z,99899.81
2023-05-23T03:28:53.174Z,99896.44
2023-05-23T03:33:57.468Z,99893.03
2023-05-23T03:39:00.476Z,99905.78
2023-05-23T03:44:03.997Z,99909.63
2023-05-23T03:49:08.640Z,99913.44
2023-05-23T03:54:12.288Z,99918.16
2023-05-23T03:59:15.210Z,99926.22
2023-05-23T04:04:21.070Z,99936.00
2023-05-23T04:09:25.450Z,99939.94
2023-05-23T04:14:29.982Z,99943.38
2023-05-23T04:19:36.175Z,99941.63
2023-05-23T04:24:39.353Z,99954.13
2023-05-23T04:29:42.289Z,99948.59
2023-05-23T04:34:46.967Z,99954.84
2023-05-23T04:39:50.227Z,99955.84
2023-05-23T04:45:05.121Z,99954.13
2023-05-23T04:50:31.720Z,99962.22
2023-05-23T04:55:35.063Z,99966.88
2023-05-23T05:00:39.238Z,99967.72
2023-05-23T05:05:43.804Z,99974.09
2023-05-23T05:10:46.722Z,99977.50
2023-05-23T05:15:52.784Z,99979.22
2023-05-23T05:20:57.545Z,99977.38
2023-05-23T05:26:00.619Z,99985.47
2023-05-23T05:31:05.334Z,99983.47
2023-05-23T05:36:12.528Z,99991.25
2023-05-23T05:41:16.605Z,99991.25
2023-05-23T05:46:23.900Z,99993.25
2023-05-23T05:51:29.797Z,99999.47
2023-05-23T05:56:32.962Z,99999.31
2023-05-23T06:01:35.841Z,100006.56
2023-05-23T06:06:40.108Z,100008.41
2023-05-23T06:11:43.291Z,100012.25
2023-05-23T06:16:46.466Z,100015.63
2023-05-23T06:21:51.478Z,100025.84
2023-05-23T06:26:55.512Z,100015.34
2023-05-23T06:31:58.573Z,100013.06
2023-05-23T06:37:03.058Z,100016.31
2023-05-23T06:42:06.466Z,100027.25
2023-05-23T06:47:25.627Z,100031.94
2023-05-23T06:52:29.821Z,100026.84
2023-05-23T06:57:33.269Z,100029.53
2023-05-23T07:02:36.241Z,100037.72
2023-05-23T07:07:43.464Z,100050.78
2023-05-23T07:12:46.615Z,100054.88
2023-05-23T07:17:51.165Z,100049.78
2023-05-23T07:22:55.990Z,100055.16
2023-05-23T07:27:59.768Z,100064.22
2023-05-23T07:33:03.132Z,100061.53
2023-05-23T07:38:08.180Z,100065.44
2023-05-23T07:43:11.770Z,100062.69
2023-05-23T07:48:14.696Z,100074.84
2023-05-23T07:53:20.098Z,100081.09
2023-05-23T07:58:23.219Z,100082.50
2023-05-23T08:03:26.417Z,100080.53
2023-05-23T08:08:41.269Z,100087.19
2023-05-23T08:13:44.981Z,100104.69
2023-05-23T08:19:11.280Z,100109.59
2023-05-23T08:24:15.942Z,100115.38
2023-05-23T08:29:20.358Z,100108.75
2023-05-23T08:34:23.593Z,100128.41
2023-05-23T08:39:27.930Z,100124.59
2023-05-23T08:44:45.022Z,100129.38
2023-05-23T08:49:48.115Z,100127.38
2023-05-23T08:54:53.231Z,100139.25
2023-05-23T08:59:56.443Z,100136.31
2023-05-23T09:05:00.311Z,100133.28
2023-05-23T09:10:06.184Z,100147.69
2023-05-23T09:15:10.666Z,100143.41
2023-05-23T09:20:14.668Z,100149.84
2023-05-23T09:25:24.923Z,100154.72
2023-05-23T09:30:28.009Z,100151.78
2023-05-23T09:35:32.355Z,100146.72
2023-05-23T09:40:37.171Z,100143.44
2023-05-23T09:45:40.491Z,100140.66
2023-05-23T09:50:43.457Z,100144.06
2023-05-23T09:55:47.850Z,100154.91
2023-05-23T10:00:51.356Z,100149.97
2023-05-23T10:05:57.284Z,100145.88
2023-05-23T10:11:32.939Z,100150.59
2023-05-23T10:16:40.791Z,100149.66
2023-05-23T10:21:46.861Z,100152.38
2023-05-23T10:26:49.851Z,100154.41
2023-05-23T10:31:54.058Z,100152.47
2023-05-23T10:37:00.951Z,100167.44
2023-05-23T10:42:07.214Z,100163.44
2023-05-23T10:47:13.016Z,100165.63
2023-05-23T10:52:18.201Z,100168.94
2023-05-23T10:57:21.700Z,100169.41
2023-05-23T11:02:29.776Z,100170.91
2023-05-23T11:07:33.250Z,100179.31
2023-05-23T11:12:40.046Z,100187.00
2023-05-23T11:17:51.354Z,100194.06
2023-05-23T11:22:54.737Z,100181.94
2023-05-23T11:27:57.560Z,100192.97
2023-05-23T11:33:01.916Z,100196.97
2023-05-23T11:38:05.229Z,100185.84
2023-05-23T11:43:09.323Z,100194.66
2023-05-23T11:48:13.940Z,100189.69
2023-05-23T11:53:18.768Z,100198.88
2023-05-23T11:58:22.691Z,100206.91
2023-05-23T12:03:27.167Z,100211.44
2023-05-23T12:08:30.358Z,100226.50
2023-05-23T12:13:33.376Z,100214.72
2023-05-23T12:18:41.137Z,100215.78
2023-05-23T12:23:44.366Z,100214.97
2023-05-23T12:28:47.186Z,100231.91
2023-05-23T12:33:54.120Z,100234.31
2023-05-23T12:38:57.078Z,100230.59
2023-05-23T12:44:00.529Z,100236.09
2023-05-23T12:49:04.892Z,100242.94
2023-05-23T12:54:09.275Z,100242.09
2023-05-23T12:59:12.139Z,100244.66
2023-05-23T13:04:16.947Z,100235.31
2023-05-23T13:09:21.215Z,100242.75
2023-05-23T13:14:24.381Z,100245.81
2023-05-23T13:19:32.977Z,100246.81
2023-05-23T13:24:47.049Z,100254.38
2023-05-23T13:29:51.803Z,100261.00
2023-05-23T13:34:56.610Z,100268.66
2023-05-23T13:39:59.539Z,100272.94
2023-05-23T13:45:05.406Z,100273.44
2023-05-23T13:50:11.228Z,100275.00
2023-05-23T13:55:14.255Z,100282.72
2023-05-23T14:00:17.552Z,100292.59
2023-05-23T14:05:22.570Z,100294.19
2023-05-23T14:10:29.987Z,100291.38
2023-05-23T14:15:34.617Z,100306.16
2023-05-23T14:20:39.205Z,100313.09
2023-05-23T14:25:42.703Z,100315.66
2023-05-23T14:30:50.873Z,100297.38
2023-05-23T14:35:55.696Z,100312.84
2023-05-23T14:40:59.902Z,100312.75
2023-05-23T14:46:03.219Z,100321.53
2023-05-23T14:51:07.623Z,100323.22
2023-05-23T14:56:10.746Z,100329.47
2023-05-23T15:01:13.891Z,100344.34
2023-05-23T15:06:18.489Z,100350.34
2023-05-23T15:11:21.714Z,100354.72
2023-05-23T15:16:25.417Z,100362.53
2023-05-23T15:21:32.459Z,100361.41
2023-05-23T15:26:36.554Z,100374.75
2023-05-23T15:31:48.021Z,100374.66
2023-05-23T15:36:56.310Z,100377.59
2023-05-23T15:42:13.525Z,100380.75
2023-05-23T15:47:22.975Z,100389.56
2023-05-23T15:52:27.206Z,100384.78
2023-05-23T15:57:30.394Z,100392.47
2023-05-23T16:02:33.288Z,100396.03
2023-05-23T16:07:37.501Z,100408.34
2023-05-23T16:12:40.508Z,100406.25
2023-05-23T16:17:43.474Z,100411.38
2023-05-23T16:22:48.154Z,100408.34
2023-05-23T16:27:51.092Z,100412.59
2023-05-23T16:32:53.925Z,100414.31
2023-05-23T16:37:58.113Z,100415.16
2023-05-23T16:43:02.739Z,100424.34
2023-05-23T16:48:06.506Z,100424.84
2023-05-23T16:53:11.953Z,100437.06
2023-05-23T16:58:14.907Z,100433.50
2023-05-23T17:03:18.178Z,100436.78
2023-05-23T17:08:22.623Z,100444.72
2023-05-23T17:13:26.110Z,100449.63
2023-05-23T17:18:28.947Z,100445.69
2023-05-23T17:23:33.459Z,100456.44
2023-05-23T17:28:36.257Z,100452.81
2023-05-23T17:33:39.085Z,100463.31
2023-05-23T17:38:43.649Z,100466.72
2023-05-23T17:43:46.646Z,100471.00
2023-05-23T17:48:49.755Z,100472.69
2023-05-23T17:53:54.890Z,100482.50
2023-05-23T17:58:57.862Z,100471.75
2023-05-23T18:04:01.346Z,100475.16
2023-05-23T18:09:06.145Z,100481.13
2023-05-23T18:14:09.077Z,100486.38
2023-05-23T18:19:12.460Z,100486.06
2023-05-23T18:24:17.044Z,100500.34
2023-05-23T18:29:20.622Z,100498.38
2023-05-23T18:34:23.414Z,100501.81
2023-05-23T18:39:27.681Z,100501.22
2023-05-23T18:44:31.469Z,100516.59
2023-05-23T18:49:34.668Z,100525.41
2023-05-23T18:54:39.087Z,100526.00
2023-05-23T18:59:42.365Z,100533.22
2023-05-23T19:04:45.281Z,100540.19
2023-05-23T19:09:49.863Z,100554.50
2023-05-23T19:14:52.816Z,100552.53
2023-05-23T19:19:56.295Z,100556.94
2023-05-23T19:25:00.711Z,100559.50
2023-05-23T19:30:03.759Z,100569.19
2023-05-23T19:35:08.192Z,100563.66
2023-05-23T19:40:13.432Z,100567.34
2023-05-23T19:45:17.023Z,100575.88
2023-05-23T19:50:21.800Z,100579.28
2023-05-23T19:55:26.466Z,100583.69
2023-05-23T20:00:32.038Z,100585.44
2023-05-23T20:05:37.057Z,100592.53
2023-05-23T20:10:43.230Z,100592.25
2023-05-23T20:15:46.459Z,100592.38
2023-05-23T20:20:49.315Z,100603.88
2023-05-23T20:25:53.598Z,100612.81
2023-05-23T20:30:56.730Z,100626.13
2023-05-23T20:35:59.621Z,100618.16
2023-05-23T20:41:06.414Z,100619.63
2023-05-23T20:46:10.114Z,100628.59
2023-05-23T20:51:13.527Z,100630.78
2023-05-23T20:56:18.140Z,100655.38
2023-05-23T21:01:23.056Z,100652.69
2023-05-23T21:06:25.990Z,100658.94
2023-05-23T21:11:30.185Z,100659.78
2023-05-23T21:16:33.450Z,100669.56
2023-05-23T21:21:37.482Z,100668.59
2023-05-23T21:26:41.645Z,100661.38
2023-05-23T21:31:44.622Z,100669.44
2023-05-23T21:36:47.479Z,100681.78
2023-05-23T21:41:52.006Z,100685.34
2023-05-23T21:46:54.950Z,100686.09
2023-05-23T21:51:57.784Z,100686.31
2023-05-23T21:57:01.985Z,100693.31
2023-05-23T22:02:05.539Z,100692.31
2023-05-23T22:07:08.478Z,100695.03
2023-05-23T22:12:13.628Z,100694.16
2023-05-23T22:17:17.791Z,100697.59
2023-05-23T22:22:20.679Z,100699.41
2023-05-23T22:27:24.854Z,100703.56
2023-05-23T22:32:27.790Z,100703.22
2023-05-23T22:37:30.620Z,100691.59
2023-05-23T22:42:34.933Z,100694.16
2023-05-23T22:47:37.719Z,100693.66
2023-05-23T22:52:40.533Z,100692.94
2023-05-23T22:57:44.700Z,100695.00
2023-05-23T23:02:47.628Z,100693.53
2023-05-23T23:07:50.476Z,100697.47
2023-05-23T23:12:54.884Z,100700.38
2023-05-23T23:17:57.704Z,100702.47
2023-05-23T23:23:00.598Z,100714.22
2023-05-23T23:28:05.051Z,100711.88
2023-05-23T23:33:07.942Z,100707.72
2023-05-23T23:38:10.863Z,100717.75
2023-05-23T23:43:15.019Z,100716.25
2023-05-23T23:48:17.875Z,100717.38
2023-05-23T23:53:21.826Z,100724.84
2023-05-23T23:58:26.105Z,100727.63
